Terminal Aerodrome Forecast
Issued by NWS

Home | Current Version | Previous Version | Text Only | Print | Product List | Glossary On
Versions: 1 2 3 4 5 6 7 8 9 10 11 12 13 14 15 16 17 18
000
FTUS41 KCAR 282333
TAFPQI
TAF
KPQI 282333Z 2900/2924 32004KT P6SM VCSH SCT030 OVC040
      TEMPO 2900/2902 4SM -SHSN OVC030
     FM290400 32004KT P6SM BKN040
     FM290800 28004KT P6SM SCT040
     FM292000 22006KT P6SM SCT050
      AMD LTD TO CLD VIS AND WIND=

USA.gov is the U.S. government's official web portal to all federal, state and local government web resources and services.